Time;durP1;ratioP1;P1;durP2;ratioP2;P2;SDS_P1;SDS_P2;PMS_P1;PMS_P2;Temp;Humidity;BMP_temperature;BMP_pressure;BME280_temperature;BME280_humidity;BME280_pressure;Samples;Min_cycle;Max_cycle;Signal;HPM_P1;HPM_P2
2021/12/11 00:00:55;;;;;;;23.98;15.07;;;1.60;99.90;;;;;;5080689;28;20051;-67
2021/12/11 00:03:31;;;;;;;29.40;17.00;;;2.30;99.90;;;;;;5114377;28;20040;-67
2021/12/11 00:06:13;;;;;;;30.08;18.10;;;1.30;99.90;;;;;;5114435;28;20134;-66
2021/12/11 00:08:41;;;;;;;28.05;16.70;;;0.60;99.90;;;;;;5114555;28;20055;-67
2021/12/11 00:11:21;;;;;;;32.95;18.30;;;0.60;99.90;;;;;;5096702;28;20093;-67
2021/12/11 00:13:47;;;;;;;33.65;19.35;;;0.50;99.90;;;;;;5096296;28;20391;-67
2021/12/11 00:16:17;;;;;;;30.88;16.95;;;0.60;99.90;;;;;;5114345;28;20127;-67
2021/12/11 00:18:44;;;;;;;36.35;17.70;;;0.40;99.90;;;;;;5114807;28;20047;-66
2021/12/11 00:21:15;;;;;;;30.42;17.63;;;0.60;99.90;;;;;;5114847;28;20130;-66
2021/12/11 00:23:43;;;;;;;36.58;18.88;;;0.20;99.90;;;;;;5096764;28;20392;-67
2021/12/11 00:26:12;;;;;;;34.85;17.40;;;0.50;99.90;;;;;;5115021;28;20044;-66
2021/12/11 00:28:49;;;;;;;29.80;16.60;;;2.00;99.90;;;;;;5114176;28;20130;-66
2021/12/11 00:31:17;;;;;;;28.50;15.82;;;0.50;99.90;;;;;;5114159;28;20089;-66
2021/12/11 00:33:43;;;;;;;28.67;15.77;;;0.90;99.90;;;;;;5114567;28;20035;-66
2021/12/11 00:36:12;;;;;;;26.20;14.75;;;0.50;99.90;;;;;;5095885;28;20464;-66
2021/12/11 00:38:39;;;;;;;27.08;15.20;;;2.70;99.90;;;;;;5096915;28;20044;-66
2021/12/11 00:41:09;;;;;;;25.92;15.38;;;2.20;99.90;;;;;;5114836;28;20097;-66
2021/12/11 00:43:36;;;;;;;22.83;15.27;;;1.40;99.90;;;;;;5113894;28;20050;-66
2021/12/11 00:46:06;;;;;;;27.52;15.68;;;0.10;99.90;;;;;;5095463;28;20510;-66
2021/12/11 00:48:32;;;;;;;23.85;14.20;;;0.10;99.90;;;;;;5113927;28;20130;-66
2021/12/11 00:51:06;;;;;;;23.92;13.10;;;1.20;99.90;;;;;;5078807;28;20051;-66
2021/12/11 00:53:37;;;;;;;22.98;13.95;;;0.40;99.90;;;;;;5113559;28;20516;-66
2021/12/11 00:56:34;;;;;;;19.45;11.95;;;0.40;99.90;;;;;;5095782;28;20043;-66
2021/12/11 00:59:03;;;;;;;21.80;13.10;;;0.90;99.90;;;;;;5112821;28;20106;-66
2021/12/11 01:01:33;;;;;;;20.23;12.70;;;0.60;99.90;;;;;;5113557;28;20483;-66
2021/12/11 01:04:10;;;;;;;19.00;10.95;;;1.10;99.90;;;;;;5113829;28;20099;-66
2021/12/11 01:06:45;;;;;;;19.38;11.82;;;0.60;99.90;;;;;;5113458;28;20052;-66
2021/12/11 01:09:32;;;;;;;19.50;11.65;;;0.40;99.90;;;;;;5113812;28;20094;-67
2021/12/11 01:12:15;;;;;;;22.00;12.27;;;0.20;99.90;;;;;;5114130;28;20122;-66
2021/12/11 01:15:07;;;;;;;18.52;11.75;;;0.40;99.90;;;;;;5095888;28;20142;-66
2021/12/11 01:17:43;;;;;;;21.77;12.90;;;0.40;99.90;;;;;;5079856;28;20040;-66
2021/12/11 01:20:45;;;;;;;22.00;12.18;;;1.50;99.90;;;;;;5114209;28;20087;-66
2021/12/11 01:23:28;;;;;;;21.27;12.75;;;0.40;99.90;;;;;;5114007;28;20396;-66
2021/12/11 01:25:54;;;;;;;20.58;12.48;;;0.90;99.90;;;;;;5114493;28;20087;-66
2021/12/11 01:28:20;;;;;;;22.17;11.93;;;0.70;99.90;;;;;;5095748;28;20484;-66
2021/12/11 01:30:46;;;;;;;19.83;11.95;;;0.20;99.90;;;;;;5113555;28;20043;-66
2021/12/11 01:33:12;;;;;;;21.13;11.93;;;0.30;99.90;;;;;;5113540;28;20044;-66
2021/12/11 01:35:40;;;;;;;18.52;11.70;;;0.60;99.90;;;;;;5113456;28;20047;-66
2021/12/11 01:38:17;;;;;;;17.40;11.32;;;1.40;99.90;;;;;;5095570;28;20052;-66
2021/12/11 01:40:45;;;;;;;16.33;10.35;;;0.30;99.90;;;;;;5113544;28;20047;-66
2021/12/11 01:43:12;;;;;;;18.23;10.10;;;0.30;99.90;;;;;;5114280;28;20039;-66
2021/12/11 01:45:45;;;;;;;15.23;9.45;;;0.20;99.90;;;;;;5113524;28;20499;-66
2021/12/11 01:48:19;;;;;;;16.90;10.05;;;0.20;99.90;;;;;;5078934;28;20134;-66
2021/12/11 01:50:46;;;;;;;;;;;0.20;99.90;;;;;;5114335;28;20086;-66
2021/12/11 01:53:23;;;;;;;17.48;10.93;;;0.20;99.90;;;;;;5113402;28;19924;-66
2021/12/11 01:55:59;;;;;;;15.88;9.15;;;0.20;99.90;;;;;;5117601;28;20104;-66
2021/12/11 01:58:38;;;;;;;18.65;9.63;;;0.20;99.90;;;;;;5082474;28;20134;-66
2021/12/11 02:01:16;;;;;;;16.42;10.65;;;0.90;99.90;;;;;;5099504;28;20046;-67
2021/12/11 02:03:42;;;;;;;16.02;9.75;;;-0.20;99.90;;;;;;5082848;28;20059;-66
2021/12/11 02:06:09;;;;;;;18.45;10.45;;;1.00;99.90;;;;;;5098736;28;20051;-66
2021/12/11 02:08:37;;;;;;;15.18;9.30;;;0.20;99.90;;;;;;5117380;28;20059;-66
2021/12/11 02:11:09;;;;;;;17.33;10.05;;;0.20;99.90;;;;;;5099063;28;20384;-66
2021/12/11 02:13:47;;;;;;;14.65;8.98;;;0.90;99.90;;;;;;5117265;28;20047;-66
2021/12/11 02:16:27;;;;;;;16.00;9.20;;;1.30;99.90;;;;;;5098743;28;20090;-66
2021/12/11 02:19:00;;;;;;;16.60;9.65;;;0.20;99.90;;;;;;5098881;28;20059;-66
2021/12/11 02:21:33;;;;;;;16.15;9.60;;;0.10;99.90;;;;;;5117282;28;20048;-66
2021/12/11 02:24:09;;;;;;;17.27;9.23;;;1.60;99.90;;;;;;5116605;28;20046;-66
2021/12/11 02:26:39;;;;;;;16.45;10.30;;;0.10;99.90;;;;;;5064762;28;20130;-66
2021/12/11 02:29:12;;;;;;;16.38;9.35;;;1.60;99.90;;;;;;5099286;28;20353;-66
2021/12/11 02:31:46;;;;;;;15.05;9.80;;;1.50;99.90;;;;;;5098485;28;20123;-66
2021/12/11 02:34:19;;;;;;;15.13;9.20;;;-0.20;99.90;;;;;;5116550;28;20479;-66
2021/12/11 02:36:56;;;;;;;14.52;8.95;;;0.00;99.90;;;;;;5099196;28;20074;-66
2021/12/11 02:39:43;;;;;;;16.80;9.55;;;0.70;99.90;;;;;;5097969;28;20126;-66
2021/12/11 02:42:17;;;;;;;15.35;9.60;;;0.10;99.90;;;;;;5098584;28;20410;-66
2021/12/11 02:45:01;;;;;;;14.85;10.30;;;0.80;99.90;;;;;;5116989;28;20043;-66
2021/12/11 02:47:59;;;;;;;16.13;9.45;;;0.20;99.90;;;;;;5116239;28;20048;-66
2021/12/11 02:50:38;;;;;;;16.95;10.10;;;1.10;99.90;;;;;;5110130;28;20052;-66
2021/12/11 02:53:13;;;;;;;18.92;9.85;;;1.10;99.90;;;;;;5097853;28;20062;-66
2021/12/11 02:55:52;;;;;;;17.40;9.73;;;0.00;99.90;;;;;;5116495;28;20044;-66
2021/12/11 02:58:27;;;;;;;17.00;9.77;;;0.00;99.90;;;;;;5116000;28;20055;-67
2021/12/11 03:01:01;;;;;;;14.80;9.13;;;-0.10;99.90;;;;;;5115840;28;20047;-67
2021/12/11 03:03:37;;;;;;;14.73;9.63;;;0.40;99.90;;;;;;5116073;28;20062;-67
2021/12/11 03:06:21;;;;;;;17.60;10.27;;;-0.10;99.90;;;;;;5115620;28;20097;-66
2021/12/11 03:08:51;;;;;;;15.13;9.85;;;0.60;99.90;;;;;;5116260;28;20097;-67
2021/12/11 03:11:21;;;;;;;18.50;10.45;;;0.00;99.90;;;;;;5115633;28;20051;-67
2021/12/11 03:13:50;;;;;;;15.68;9.98;;;0.10;99.90;;;;;;5097691;28;20122;-67
2021/12/11 03:16:23;;;;;;;16.17;9.93;;;-0.40;99.90;;;;;;5115590;28;20047;-67
2021/12/11 03:18:49;;;;;;;17.08;9.85;;;0.20;99.90;;;;;;5115444;28;20047;-67
2021/12/11 03:21:15;;;;;;;14.75;9.38;;;0.10;99.90;;;;;;5115885;28;20047;-67
2021/12/11 03:23:41;;;;;;;17.50;9.82;;;0.00;99.90;;;;;;5115367;28;20044;-67
2021/12/11 03:26:07;;;;;;;15.35;9.35;;;0.00;99.90;;;;;;5115377;28;20435;-67
2021/12/11 03:28:33;;;;;;;16.35;9.77;;;-0.10;99.90;;;;;;5097147;28;20135;-67
2021/12/11 03:31:01;;;;;;;18.52;10.45;;;-0.20;99.90;;;;;;5097258;28;20120;-66
2021/12/11 03:33:38;;;;;;;16.92;9.77;;;-0.20;99.90;;;;;;5097795;28;20392;-66
2021/12/11 03:36:08;;;;;;;16.20;9.82;;;-0.30;99.90;;;;;;5115137;28;20088;-67
2021/12/11 03:38:36;;;;;;;15.73;9.57;;;1.10;99.90;;;;;;5115658;28;20040;-66
2021/12/11 03:41:04;;;;;;;14.50;9.75;;;0.60;99.90;;;;;;5097070;28;20047;-67
2021/12/11 03:43:31;;;;;;;17.95;10.30;;;0.90;99.90;;;;;;5115009;28;20047;-67
2021/12/11 03:46:04;;;;;;;17.40;9.98;;;-0.20;99.90;;;;;;5114970;28;20087;-67
2021/12/11 03:48:55;;;;;;;16.27;10.60;;;0.70;99.90;;;;;;5081373;28;20059;-67
2021/12/11 03:51:26;;;;;;;17.58;10.45;;;0.00;99.90;;;;;;5103424;28;20055;-67
2021/12/11 03:53:52;;;;;;;16.73;10.77;;;0.10;99.90;;;;;;5115037;28;20040;-66
2021/12/11 03:56:19;;;;;;;15.23;9.30;;;1.10;99.90;;;;;;5097200;28;20044;-66
2021/12/11 03:58:50;;;;;;;15.57;9.52;;;-0.20;99.90;;;;;;5114665;28;20095;-67
2021/12/11 04:01:28;;;;;;;16.25;9.75;;;1.10;99.90;;;;;;5115018;28;20122;-67
2021/12/11 04:03:59;;;;;;;17.75;10.50;;;0.00;99.90;;;;;;5115268;28;20205;-66
2021/12/11 04:06:26;;;;;;;18.08;10.05;;;1.20;99.90;;;;;;5115128;28;20063;-66
2021/12/11 04:08:54;;;;;;;15.85;9.65;;;0.90;99.90;;;;;;5114573;28;20098;-66
2021/12/11 04:11:24;;;;;;;16.08;9.70;;;-0.20;99.90;;;;;;5114519;28;20120;-66
2021/12/11 04:14:05;;;;;;;19.88;10.98;;;-0.10;99.90;;;;;;5114401;28;20135;-67
2021/12/11 04:16:31;;;;;;;16.60;10.13;;;-0.10;99.90;;;;;;5079982;28;20368;-66
2021/12/11 04:18:57;;;;;;;17.27;10.68;;;0.40;99.90;;;;;;5114268;28;20043;-67
2021/12/11 04:21:24;;;;;;;16.83;10.50;;;-0.20;99.90;;;;;;5114343;28;20052;-66
2021/12/11 04:23:50;;;;;;;17.08;10.25;;;-0.20;99.90;;;;;;5096394;28;20055;-67
2021/12/11 04:26:16;;;;;;;18.63;11.15;;;-0.10;99.90;;;;;;5114517;28;20122;-66
2021/12/11 04:28:45;;;;;;;18.77;11.05;;;0.70;99.90;;;;;;5114442;28;20043;-66
2021/12/11 04:31:19;;;;;;;15.85;9.73;;;-0.30;99.90;;;;;;5096258;28;20395;-67
2021/12/11 04:33:46;;;;;;;;;;;0.10;99.90;;;;;;5114565;28;20176;-66
2021/12/11 04:36:17;;;;;;;18.67;11.48;;;0.20;99.90;;;;;;5096055;28;19919;-66
2021/12/11 04:38:44;;;;;;;17.02;10.18;;;-0.20;99.90;;;;;;5096463;28;20054;-67
2021/12/11 04:41:18;;;;;;;14.90;9.52;;;1.10;99.90;;;;;;5096917;28;20055;-67
2021/12/11 04:43:44;;;;;;;16.05;10.70;;;-0.10;99.90;;;;;;5114682;28;20058;-66
2021/12/11 04:46:12;;;;;;;18.52;10.48;;;1.30;99.90;;;;;;5114597;28;20044;-67
2021/12/11 04:59:54;;;;;;;16.88;10.60;;;0.10;99.90;;;;;;5072049;28;20142;-67
2021/12/11 05:08:00;;;;;;;18.40;10.52;;;0.70;99.90;;;;;;5114096;28;20095;-67
2021/12/11 05:10:39;;;;;;;20.30;12.10;;;0.40;99.90;;;;;;5114346;28;20048;-67
2021/12/11 05:13:06;;;;;;;18.65;10.63;;;0.50;99.90;;;;;;5114432;28;20043;-67
2021/12/11 05:15:36;;;;;;;19.20;10.68;;;-0.20;99.90;;;;;;5113659;28;20092;-67
2021/12/11 05:18:05;;;;;;;15.90;10.10;;;0.50;99.90;;;;;;5113687;28;20048;-66
2021/12/11 05:20:33;;;;;;;17.20;10.93;;;0.40;99.90;;;;;;5095741;28;20430;-67
2021/12/11 05:22:59;;;;;;;19.17;10.70;;;-0.20;99.90;;;;;;5113676;28;20043;-66
2021/12/11 05:25:26;;;;;;;15.85;9.73;;;-0.20;99.90;;;;;;5114224;28;20046;-66
2021/12/11 05:27:52;;;;;;;19.52;10.75;;;0.90;99.90;;;;;;5113652;28;20047;-67
2021/12/11 05:30:31;;;;;;;16.65;10.00;;;0.20;99.90;;;;;;5117413;28;20371;-67
2021/12/11 05:32:59;;;;;;;17.10;9.98;;;-0.10;99.90;;;;;;5099463;28;20087;-67
2021/12/11 05:35:30;;;;;;;18.38;10.15;;;-0.20;99.90;;;;;;5100104;28;20035;-66
2021/12/11 05:37:57;;;;;;;17.38;9.73;;;-0.20;99.90;;;;;;5117531;28;20054;-67
2021/12/11 05:40:24;;;;;;;16.23;10.38;;;1.00;99.90;;;;;;5082475;28;20391;-67
2021/12/11 05:42:50;;;;;;;16.95;9.52;;;1.30;99.90;;;;;;5117074;28;20039;-66
2021/12/11 05:45:16;;;;;;;17.08;10.40;;;0.70;99.90;;;;;;5117330;28;20043;-66
2021/12/11 05:47:43;;;;;;;16.83;9.90;;;0.10;99.90;;;;;;5100064;28;20048;-67
2021/12/11 05:50:14;;;;;;;19.55;10.48;;;-0.40;99.90;;;;;;5099190;28;20516;-67
2021/12/11 05:52:40;;;;;;;16.88;9.73;;;1.00;99.90;;;;;;5117239;28;20047;-66
2021/12/11 05:55:09;;;;;;;17.55;10.93;;;0.60;99.90;;;;;;5098878;28;20048;-66
2021/12/11 05:57:36;;;;;;;16.80;9.73;;;-0.20;99.90;;;;;;5098863;28;20085;-66
2021/12/11 06:00:08;;;;;;;19.88;10.95;;;0.00;99.90;;;;;;5081965;28;20495;-66
2021/12/11 06:02:34;;;;;;;16.23;9.63;;;0.10;99.90;;;;;;5117308;28;20153;-67
2021/12/11 06:05:01;;;;;;;16.55;9.93;;;-0.10;99.90;;;;;;5116940;28;20400;-66
2021/12/11 06:07:29;;;;;;;18.08;9.98;;;1.10;99.90;;;;;;5098613;28;20419;-66
2021/12/11 06:09:59;;;;;;;17.65;10.90;;;1.40;99.90;;;;;;5116832;28;20050;-67
2021/12/11 06:12:27;;;;;;;16.95;10.52;;;0.50;99.90;;;;;;5098495;28;20476;-66
2021/12/11 06:14:53;;;;;;;20.20;11.13;;;0.00;99.90;;;;;;5116352;28;20556;-66
2021/12/11 06:17:24;;;;;;;21.95;11.35;;;0.10;99.90;;;;;;5116704;28;20097;-66
2021/12/11 06:19:53;;;;;;;19.33;11.48;;;1.50;99.90;;;;;;5117156;28;20055;-66
2021/12/11 06:22:21;;;;;;;19.05;10.40;;;0.10;99.90;;;;;;5116606;28;20043;-66
2021/12/11 06:24:47;;;;;;;22.95;12.48;;;1.40;99.90;;;;;;5099130;28;20105;-67
2021/12/11 06:27:13;;;;;;;20.13;10.90;;;0.20;99.90;;;;;;5116506;28;20391;-67
2021/12/11 06:29:39;;;;;;;19.45;10.35;;;-0.10;99.90;;;;;;5116705;28;20039;-66
2021/12/11 06:32:05;;;;;;;17.50;11.40;;;0.20;99.90;;;;;;5116350;28;20546;-67
2021/12/11 06:34:33;;;;;;;17.80;10.98;;;0.20;99.90;;;;;;5116347;28;20036;-66
2021/12/11 06:37:08;;;;;;;20.20;11.50;;;0.20;99.90;;;;;;5116644;28;20051;-67
2021/12/11 06:39:34;;;;;;;19.63;11.50;;;2.60;99.90;;;;;;5116493;28;20047;-67
2021/12/11 06:42:06;;;;;;;18.50;11.63;;;0.20;99.90;;;;;;5116234;28;20051;-67
2021/12/11 06:44:32;;;;;;;20.58;12.23;;;0.30;99.90;;;;;;5116754;28;20044;-66
2021/12/11 06:47:00;;;;;;;18.88;11.13;;;1.40;99.90;;;;;;5115837;28;20511;-67
2021/12/11 06:49:28;;;;;;;23.73;12.13;;;0.20;99.90;;;;;;5116524;28;20086;-67
2021/12/11 06:51:54;;;;;;;24.08;12.73;;;0.20;99.90;;;;;;5116029;28;20479;-67
2021/12/11 06:54:20;;;;;;;19.85;12.45;;;0.20;99.90;;;;;;5063830;28;20047;-67
2021/12/11 06:56:46;;;;;;;22.77;12.45;;;0.50;99.90;;;;;;5115945;28;20105;-67
2021/12/11 06:59:12;;;;;;;21.15;12.30;;;0.30;99.90;;;;;;5115850;28;20051;-67
2021/12/11 07:01:39;;;;;;;22.13;12.23;;;0.50;99.90;;;;;;5116498;28;20039;-67
2021/12/11 07:04:07;;;;;;;20.55;12.70;;;1.20;99.90;;;;;;5115877;28;20044;-67
2021/12/11 07:06:35;;;;;;;20.63;12.50;;;0.30;99.90;;;;;;5115645;28;20521;-67
2021/12/11 07:09:04;;;;;;;23.10;13.20;;;0.40;99.90;;;;;;5115424;28;20486;-67
2021/12/11 07:11:30;;;;;;;23.98;12.55;;;1.80;99.90;;;;;;5115685;28;20040;-67
2021/12/11 07:13:56;;;;;;;18.90;12.38;;;0.80;99.90;;;;;;5097421;28;20047;-67
2021/12/11 07:16:22;;;;;;;23.63;13.15;;;2.10;99.90;;;;;;5116343;28;20047;-67
2021/12/11 07:18:50;;;;;;;24.98;13.18;;;0.30;99.90;;;;;;5116073;28;20054;-67
2021/12/11 07:21:16;;;;;;;21.35;12.93;;;0.50;99.90;;;;;;5115894;28;20044;-67
2021/12/11 07:23:47;;;;;;;22.80;13.18;;;0.70;99.90;;;;;;5098315;28;20446;-67
2021/12/11 07:26:18;;;;;;;22.80;13.80;;;1.00;99.90;;;;;;5097395;28;20499;-67
2021/12/11 07:28:48;;;;;;;22.70;12.32;;;0.30;99.90;;;;;;5115327;28;20054;-67
2021/12/11 07:31:14;;;;;;;24.92;13.60;;;0.80;99.90;;;;;;5080663;28;20039;-67
2021/12/11 07:33:40;;;;;;;22.13;12.80;;;0.30;99.90;;;;;;5097669;28;20373;-67
2021/12/11 07:36:06;;;;;;;21.35;12.48;;;0.40;99.90;;;;;;5115650;28;20082;-67
2021/12/11 07:38:32;;;;;;;21.10;11.90;;;2.10;99.90;;;;;;5115644;28;20079;-67
2021/12/11 07:41:01;;;;;;;25.20;12.77;;;1.00;99.90;;;;;;5097507;28;20135;-67
2021/12/11 07:43:28;;;;;;;20.10;12.07;;;0.50;99.90;;;;;;5114979;28;20051;-67
2021/12/11 07:45:55;;;;;;;22.73;12.10;;;0.60;99.90;;;;;;5114955;28;20048;-67
2021/12/11 07:48:21;;;;;;;24.75;13.18;;;2.10;99.90;;;;;;5096756;28;20126;-67
2021/12/11 07:50:48;;;;;;;22.85;12.65;;;0.40;99.90;;;;;;5096655;28;20047;-67
2021/12/11 07:53:15;;;;;;;25.13;13.68;;;0.90;99.90;;;;;;5096030;28;20044;-66
2021/12/11 07:55:41;;;;;;;19.83;11.98;;;1.00;99.90;;;;;;5114704;28;20100;-66
2021/12/11 07:58:07;;;;;;;21.33;12.32;;;0.50;99.90;;;;;;5114765;28;20043;-66
2021/12/11 08:00:35;;;;;;;20.13;11.40;;;0.40;99.90;;;;;;5114696;28;20058;-66
2021/12/11 08:03:03;;;;;;;20.30;11.82;;;0.20;99.90;;;;;;5096667;28;20058;-66
2021/12/11 08:05:29;;;;;;;22.08;12.00;;;0.50;99.90;;;;;;5114647;28;20047;-66
2021/12/11 08:08:00;;;;;;;23.85;13.30;;;1.20;99.90;;;;;;5114937;28;20142;-67
2021/12/11 08:10:27;;;;;;;23.20;12.65;;;0.60;99.90;;;;;;5114547;28;20047;-67
2021/12/11 08:12:53;;;;;;;20.45;13.05;;;0.50;99.90;;;;;;5114487;28;20051;-66
2021/12/11 08:15:20;;;;;;;21.42;12.70;;;0.30;99.90;;;;;;5114345;28;20043;-66
2021/12/11 08:17:52;;;;;;;25.67;13.05;;;0.40;99.90;;;;;;5096244;28;20054;-67
2021/12/11 08:20:19;;;;;;;23.23;13.40;;;0.40;99.90;;;;;;5115195;28;20075;-66
2021/12/11 08:22:45;;;;;;;20.42;12.15;;;0.40;99.90;;;;;;5096386;28;20492;-66
2021/12/11 08:25:11;;;;;;;23.02;13.85;;;1.70;99.90;;;;;;5114301;28;20040;-66
2021/12/11 08:27:37;;;;;;;22.27;13.32;;;1.00;99.90;;;;;;5096154;28;20532;-66
2021/12/11 08:30:05;;;;;;;20.63;12.75;;;0.50;99.90;;;;;;5095954;28;20079;-66
2021/12/11 08:32:31;;;;;;;25.90;13.55;;;0.30;99.90;;;;;;5079721;28;20044;-66
2021/12/11 08:34:56;;;;;;;24.98;13.73;;;0.90;99.90;;;;;;5096854;28;20044;-66
2021/12/11 08:37:25;;;;;;;22.52;12.85;;;0.30;99.90;;;;;;5096150;28;20044;-66
2021/12/11 08:39:56;;;;;;;23.58;14.05;;;1.30;99.90;;;;;;5114233;28;20399;-65
2021/12/11 08:42:25;;;;;;;23.63;13.07;;;0.30;99.90;;;;;;5114500;28;20043;-65
2021/12/11 08:44:59;;;;;;;21.45;12.40;;;1.00;99.90;;;;;;5096111;28;20160;-65
2021/12/11 08:47:26;;;;;;;21.75;12.85;;;0.20;99.90;;;;;;5114169;28;20046;-65
2021/12/11 08:49:54;;;;;;;23.85;13.40;;;0.30;99.90;;;;;;5114089;28;20079;-65
2021/12/11 08:52:28;;;;;;;22.02;13.07;;;0.40;99.90;;;;;;5114067;28;20055;-65
2021/12/11 08:54:55;;;;;;;25.25;13.27;;;0.60;99.90;;;;;;5114086;28;20054;-65
2021/12/11 08:57:27;;;;;;;23.63;12.98;;;0.50;99.90;;;;;;5114082;28;20058;-65
2021/12/11 08:59:57;;;;;;;23.65;13.65;;;1.50;99.90;;;;;;5114051;28;20035;-65
2021/12/11 09:02:33;;;;;;;25.02;13.65;;;2.00;99.90;;;;;;5114593;28;20191;-64
2021/12/11 09:05:15;;;;;;;22.98;14.30;;;0.40;99.90;;;;;;5118632;28;20032;-65
2021/12/11 09:07:49;;;;;;;23.50;12.43;;;0.50;99.90;;;;;;5118637;28;20073;-65
2021/12/11 09:10:20;;;;;;;27.13;15.25;;;0.40;99.90;;;;;;5118720;28;20047;-66
2021/12/11 09:12:55;;;;;;;24.75;14.50;;;0.60;99.90;;;;;;5118311;28;20502;-66
2021/12/11 09:15:33;;;;;;;27.90;14.20;;;0.60;99.90;;;;;;5099860;28;20047;-66
2021/12/11 09:18:13;;;;;;;26.05;14.55;;;0.70;99.90;;;;;;5118301;28;20043;-66
2021/12/11 09:20:44;;;;;;;25.92;15.10;;;0.60;99.90;;;;;;5100213;28;20391;-67
2021/12/11 09:23:27;;;;;;;27.95;15.07;;;0.60;99.90;;;;;;5100048;28;20547;-67
2021/12/11 09:26:02;;;;;;;24.70;15.02;;;0.80;99.90;;;;;;5100222;28;20059;-66
2021/12/11 09:28:48;;;;;;;23.67;14.45;;;0.70;99.90;;;;;;5117772;28;20043;-66
2021/12/11 09:31:26;;;;;;;22.45;14.02;;;0.80;99.90;;;;;;5117874;28;20092;-67
2021/12/11 09:34:05;;;;;;;27.95;15.68;;;0.80;99.90;;;;;;5100075;28;20126;-65
2021/12/11 09:36:36;;;;;;;27.60;16.08;;;0.80;99.90;;;;;;5100285;28;20456;-65
2021/12/11 09:39:41;;;;;;;25.13;14.65;;;2.30;99.90;;;;;;5117680;28;20099;-66
2021/12/11 09:42:07;;;;;;;23.52;15.05;;;1.10;99.90;;;;;;5113875;28;20051;-67
2021/12/11 09:44:43;;;;;;;25.83;14.80;;;0.90;99.90;;;;;;5118175;28;20047;-67
2021/12/11 09:47:19;;;;;;;26.38;15.65;;;0.90;99.90;;;;;;5117802;28;20044;-67
2021/12/11 09:49:54;;;;;;;29.05;16.05;;;1.20;99.90;;;;;;5100318;28;20108;-67
2021/12/11 09:52:25;;;;;;;24.27;14.93;;;1.10;99.90;;;;;;5118256;28;20047;-67
2021/12/11 09:55:00;;;;;;;29.88;15.82;;;1.90;99.90;;;;;;5117836;28;20043;-67
2021/12/11 09:57:31;;;;;;;26.77;15.25;;;1.20;99.90;;;;;;5117313;28;20122;-70
2021/12/11 10:00:01;;;;;;;26.00;15.70;;;1.50;99.90;;;;;;5099621;28;20079;-69
2021/12/11 10:02:30;;;;;;;26.63;15.55;;;2.80;99.90;;;;;;5117437;28;20044;-69
2021/12/11 10:05:18;;;;;;;24.83;14.90;;;1.40;99.90;;;;;;5117125;28;20044;-69
2021/12/11 10:08:01;;;;;;;25.73;14.23;;;1.40;99.90;;;;;;5117314;28;20079;-69
2021/12/11 10:10:27;;;;;;;21.35;13.02;;;2.40;99.90;;;;;;5117092;28;20047;-69
2021/12/11 10:12:57;;;;;;;24.73;14.30;;;1.30;99.90;;;;;;5116948;28;20107;-68
2021/12/11 10:15:35;;;;;;;26.83;13.57;;;1.60;99.90;;;;;;5116918;28;20043;-67
2021/12/11 10:18:08;;;;;;;23.75;13.13;;;1.60;99.90;;;;;;5116915;28;20172;-67
2021/12/11 10:20:40;;;;;;;21.92;11.50;;;1.60;99.90;;;;;;5116808;28;20043;-67
2021/12/11 10:23:09;;;;;;;24.33;13.35;;;1.70;99.90;;;;;;5116932;28;20048;-67
2021/12/11 10:25:37;;;;;;;25.42;13.48;;;2.40;99.90;;;;;;5116712;28;20515;-69
2021/12/11 10:28:08;;;;;;;24.15;12.50;;;2.70;99.90;;;;;;5116655;28;20042;-69
2021/12/11 10:30:39;;;;;;;22.40;11.90;;;1.90;99.90;;;;;;5116688;28;20040;-69
2021/12/11 10:33:06;;;;;;;23.08;11.88;;;1.80;99.90;;;;;;5116623;28;20051;-69
2021/12/11 10:35:37;;;;;;;19.25;11.18;;;1.80;99.90;;;;;;5099108;28;20463;-69
2021/12/11 10:38:05;;;;;;;20.65;12.70;;;3.60;99.90;;;;;;5117052;28;20131;-69
2021/12/11 10:40:39;;;;;;;27.25;13.20;;;3.00;99.90;;;;;;5116414;28;20052;-69
2021/12/11 10:43:12;;;;;;;23.70;12.95;;;2.10;99.90;;;;;;5098118;28;20094;-69
2021/12/11 10:45:39;;;;;;;23.08;13.57;;;2.20;99.90;;;;;;5116958;28;20092;-69
2021/12/11 10:48:12;;;;;;;21.55;11.98;;;2.90;99.90;;;;;;5116235;28;20043;-68
2021/12/11 10:50:42;;;;;;;24.23;12.98;;;3.00;99.90;;;;;;5116311;28;20043;-70
2021/12/11 10:53:13;;;;;;;27.67;13.07;;;3.20;99.90;;;;;;5116839;28;20043;-69
2021/12/11 10:55:39;;;;;;;25.38;13.38;;;3.10;99.90;;;;;;5116789;28;20073;-69
2021/12/11 10:58:10;;;;;;;22.08;11.63;;;2.40;99.90;;;;;;5097854;28;20058;-69
2021/12/11 11:00:48;;;;;;;22.42;11.25;;;2.50;99.90;;;;;;5116589;28;20090;-70
2021/12/11 11:03:17;;;;;;;21.38;12.48;;;2.40;99.90;;;;;;5115265;28;20050;-69
2021/12/11 11:05:44;;;;;;;19.65;11.32;;;3.70;99.90;;;;;;5115248;28;20043;-68
2021/12/11 11:08:10;;;;;;;21.13;12.73;;;2.50;99.90;;;;;;5115406;28;20131;-69
2021/12/11 11:10:51;;;;;;;26.75;12.55;;;3.20;99.90;;;;;;5115333;28;20122;-69
2021/12/11 11:13:18;;;;;;;21.90;12.20;;;2.60;99.90;;;;;;5115333;28;20044;-69
2021/12/11 11:15:45;;;;;;;19.60;12.15;;;2.50;99.90;;;;;;5079792;28;20057;-69
2021/12/11 11:18:14;;;;;;;22.55;11.82;;;3.10;99.90;;;;;;5115226;28;20100;-69
2021/12/11 11:21:08;;;;;;;20.42;11.40;;;4.30;99.90;;;;;;5097062;28;20492;-69
2021/12/11 11:23:35;;;;;;;21.67;11.85;;;2.80;99.90;;;;;;5111225;28;20479;-69
2021/12/11 11:26:07;;;;;;;23.13;13.23;;;2.80;99.90;;;;;;5114340;28;20047;-69
2021/12/11 11:28:33;;;;;;;26.23;12.52;;;3.00;99.90;;;;;;5114903;28;20391;-69
2021/12/11 11:31:21;;;;;;;24.60;13.27;;;2.70;99.90;;;;;;5115215;28;20051;-69
2021/12/11 11:33:48;;;;;;;23.77;12.80;;;3.70;99.90;;;;;;5115528;28;20044;-69
2021/12/11 11:36:19;;;;;;;21.33;12.05;;;3.50;99.90;;;;;;5115114;28;20044;-69
2021/12/11 11:38:49;;;;;;;25.33;13.13;;;3.00;99.90;;;;;;5114820;28;20051;-69
2021/12/11 11:41:20;;;;;;;21.20;12.55;;;3.10;99.90;;;;;;5114646;28;20059;-69
2021/12/11 11:43:47;;;;;;;22.27;13.13;;;4.10;99.90;;;;;;5115441;28;20047;-69
2021/12/11 11:46:13;;;;;;;23.60;13.43;;;3.40;99.90;;;;;;5114587;28;20153;-69
2021/12/11 11:48:44;;;;;;;23.40;13.15;;;3.00;99.90;;;;;;5114591;28;20053;-68
2021/12/11 11:51:33;;;;;;;24.92;13.10;;;3.90;99.90;;;;;;5114330;28;20518;-69
2021/12/11 11:54:01;;;;;;;23.83;12.38;;;3.40;99.90;;;;;;5113552;28;20140;-68
2021/12/11 11:56:31;;;;;;;25.77;13.98;;;4.20;99.90;;;;;;5096402;28;20498;-68
2021/12/11 11:58:57;;;;;;;25.42;13.75;;;3.30;99.90;;;;;;5114365;28;20094;-69
2021/12/11 12:01:43;;;;;;;26.88;13.35;;;3.30;99.90;;;;;;5096125;28;20046;-68
2021/12/11 12:04:15;;;;;;;26.40;13.70;;;4.20;99.90;;;;;;5114231;28;20109;-69
2021/12/11 12:06:43;;;;;;;24.98;14.15;;;4.30;99.90;;;;;;5114584;28;20540;-68
2021/12/11 12:09:11;;;;;;;27.95;12.57;;;3.60;99.90;;;;;;5096799;28;20417;-68
2021/12/11 12:11:39;;;;;;;24.05;13.02;;;3.40;99.90;;;;;;5114516;28;20046;-67
2021/12/11 12:14:09;;;;;;;24.27;12.85;;;3.50;99.90;;;;;;5114105;28;20047;-67
2021/12/11 12:16:39;;;;;;;25.50;13.38;;;3.50;99.90;;;;;;5095858;28;20096;-67
2021/12/11 12:19:05;;;;;;;24.42;13.07;;;3.50;99.90;;;;;;5114560;28;20127;-67
2021/12/11 12:21:33;;;;;;;21.60;12.15;;;4.60;99.90;;;;;;5113912;28;20044;-67
2021/12/11 12:23:59;;;;;;;21.45;12.00;;;3.40;99.90;;;;;;5113958;28;20051;-67
2021/12/11 12:26:28;;;;;;;21.73;11.90;;;3.60;99.90;;;;;;5113971;28;20051;-67
2021/12/11 12:28:55;;;;;;;22.90;12.00;;;4.50;99.90;;;;;;5113576;28;20043;-67
2021/12/11 12:31:34;;;;;;;21.20;12.23;;;3.60;99.90;;;;;;5113415;28;20373;-67
2021/12/11 12:34:02;;;;;;;22.88;12.70;;;3.70;99.90;;;;;;5114171;28;20067;-67
2021/12/11 12:36:28;;;;;;;24.42;12.32;;;3.90;99.90;;;;;;5113778;28;20055;-68
2021/12/11 12:38:54;;;;;;;24.95;11.98;;;4.90;99.90;;;;;;5113583;28;20044;-69
2021/12/11 12:41:23;;;;;;;21.38;12.35;;;4.30;99.90;;;;;;5113716;28;20090;-67
2021/12/11 12:46:56;;;;;;;25.63;13.55;;;3.80;99.90;;;;;;5096457;28;20431;-68
2021/12/11 12:49:26;;;;;;;24.75;13.50;;;3.80;99.90;;;;;;5079207;28;20050;-68
2021/12/11 12:51:53;;;;;;;25.45;13.10;;;4.70;99.90;;;;;;5113908;28;20506;-68
2021/12/11 12:54:21;;;;;;;25.52;13.15;;;4.40;99.90;;;;;;5113144;28;20559;-68
2021/12/11 12:56:56;;;;;;;22.13;13.05;;;4.00;99.90;;;;;;5113728;28;20051;-69
2021/12/11 12:59:32;;;;;;;22.00;13.05;;;3.90;99.90;;;;;;5096050;28;20052;-69
2021/12/11 13:02:02;;;;;;;27.45;14.73;;;3.90;99.90;;;;;;5095365;28;20059;-68
2021/12/11 13:04:34;;;;;;;22.63;12.70;;;3.80;99.90;;;;;;5113469;28;20039;-69
2021/12/11 13:07:04;;;;;;;23.48;13.52;;;3.90;99.90;;;;;;5112921;28;20056;-68
2021/12/11 13:09:40;;;;;;;23.40;13.23;;;4.00;99.90;;;;;;5113189;28;20052;-68
2021/12/11 13:12:15;;;;;;;23.80;13.30;;;4.00;99.90;;;;;;5095617;28;20108;-68
2021/12/11 13:14:42;;;;;;;24.70;12.95;;;4.40;99.90;;;;;;5114022;28;20040;-68
2021/12/11 13:17:30;;;;;;;24.65;13.00;;;4.40;99.90;;;;;;5113868;28;20059;-68